PWSweather.com
Personal Weather Stations
Station Observations
KILMORRI1
Goose Lake, Morris, IL 60450

Goose LakeMorris, IL 60450

Lat: 41.34, Lon: -88.3

Elevation: 523

Station Type:

www.gooselakeweather.com

High Low Average
Temperature 36.3°F2.4°C 9.4°F-12.6°C 22.6°F-5.2°C
Dew Point 27.3°F-2.6°C -1.5°F-18.6°C 11.6°F-11.3°C
Winds 15.0 mph 24.1 kmh 1.2 mph 1.9 kmh 8.0 mph WNW12.9 kmh WNW
Wind Gusts 24.2 mph38.9 kmh 2.3 mph3.7 kmh 12.0 mph19.3 kmh
Humidity 79% 48% 62%
Pressure 30.47 in1031.8 mb 29.83 in1010.2 mb -
Precipitation 0.00 in0.0 mm - -
Hour Temp Dew Point Humidity Winds Wind Gusts Pressure Precip Precip Rate Daily Precip Total
12:00 AM 36.9°F2.7°C 27.0°F-2.8°C 67% 4.6 mph WSW7.4 kmh WSW 5.8 mph9.3 kmh 29.84 in1010.5 mb - 0.00 in0.0 mm 0.00 in0.0 mm
12:10 AM 36.7°F2.6°C 26.8°F-2.9°C 67% 2.3 mph WSW3.7 kmh WSW 3.5 mph5.6 kmh 29.84 in1010.5 mb - 0.00 in0.0 mm 0.00 in0.0 mm
12:20 AM 36.6°F2.6°C 26.3°F-3.2°C 66% 3.5 mph W5.6 kmh W 4.6 mph7.4 kmh 29.84 in1010.5 mb - 0.00 in0.0 mm 0.00 in0.0 mm
12:30 AM 36.7°F2.6°C 26.4°F-3.1°C 66% 5.8 mph W9.3 kmh W 9.2 mph14.8 kmh 29.85 in1010.8 mb - 0.00 in0.0 mm 0.00 in0.0 mm
12:40 AM 36.6°F2.6°C 26.3°F-3.2°C 66% 3.5 mph WSW5.6 kmh WSW 3.5 mph5.6 kmh 29.85 in1010.8 mb - 0.00 in0.0 mm 0.00 in0.0 mm
12:50 AM 36.4°F2.4°C 26.5°F-3.1°C 67% 4.6 mph W7.4 kmh W 9.2 mph14.8 kmh 29.85 in1010.8 mb - 0.00 in0.0 mm 0.00 in0.0 mm
01:00 AM 36.3°F2.4°C 26.4°F-3.1°C 67% 6.9 mph W11.1 kmh W 10.4 mph16.7 kmh 29.84 in1010.5 mb - 0.00 in0.0 mm 0.00 in0.0 mm
01:10 AM 36.2°F2.3°C 26.3°F-3.2°C 67% 4.6 mph W7.4 kmh W 10.4 mph16.7 kmh 29.84 in1010.5 mb - 0.00 in0.0 mm 0.00 in0.0 mm
01:20 AM 36.0°F2.2°C 26.1°F-3.3°C 67% 3.5 mph WNW5.6 kmh WNW 6.9 mph11.1 kmh 29.84 in1010.5 mb - 0.00 in0.0 mm 0.00 in0.0 mm
01:30 AM 35.9°F2.2°C 26.4°F-3.1°C 68% 3.5 mph W5.6 kmh W 4.6 mph7.4 kmh 29.84 in1010.5 mb - 0.00 in0.0 mm 0.00 in0.0 mm
01:40 AM 35.8°F2.1°C 26.3°F-3.2°C 68% 3.5 mph W5.6 kmh W 8.1 mph13.0 kmh 29.84 in1010.5 mb - 0.00 in0.0 mm 0.00 in0.0 mm
01:50 AM 35.7°F2.1°C 26.5°F-3.1°C 69% 3.5 mph W5.6 kmh W 4.6 mph7.4 kmh 29.84 in1010.5 mb - 0.00 in0.0 mm 0.00 in0.0 mm
02:00 AM 35.5°F1.9°C 26.3°F-3.2°C 69% 6.9 mph WSW11.1 kmh WSW 9.2 mph14.8 kmh 29.84 in1010.5 mb - 0.00 in0.0 mm 0.00 in0.0 mm
02:10 AM 35.1°F1.7°C 26.3°F-3.2°C 70% 4.6 mph WSW7.4 kmh WSW 4.6 mph7.4 kmh 29.83 in1010.2 mb - 0.00 in0.0 mm 0.00 in0.0 mm
02:20 AM 34.7°F1.5°C 25.9°F-3.4°C 70% 4.6 mph WSW7.4 kmh WSW 6.9 mph11.1 kmh 29.83 in1010.2 mb - 0.00 in0.0 mm 0.00 in0.0 mm
02:30 AM 34.5°F1.4°C 26.1°F-3.3°C 71% 3.5 mph W5.6 kmh W 9.2 mph14.8 kmh 29.83 in1010.2 mb - 0.00 in0.0 mm 0.00 in0.0 mm
02:40 AM 33.9°F1.1°C 25.8°F-3.4°C 72% 3.5 mph WSW5.6 kmh WSW 4.6 mph7.4 kmh 29.85 in1010.8 mb - 0.00 in0.0 mm 0.00 in0.0 mm
02:50 AM 33.8°F1.0°C 26.1°F-3.3°C 73% 4.6 mph W7.4 kmh W 5.8 mph9.3 kmh 29.85 in1010.8 mb - 0.00 in0.0 mm 0.00 in0.0 mm
03:00 AM 33.7°F0.9°C 26.3°F-3.2°C 74% 2.3 mph W3.7 kmh W 3.5 mph5.6 kmh 29.85 in1010.8 mb - 0.00 in0.0 mm 0.00 in0.0 mm
03:10 AM 33.9°F1.1°C 26.4°F-3.1°C 74% 3.5 mph WSW5.6 kmh WSW 4.6 mph7.4 kmh 29.86 in1011.2 mb - 0.00 in0.0 mm 0.00 in0.0 mm
03:20 AM 33.4°F0.8°C 26.0°F-3.3°C 74% 3.5 mph WSW5.6 kmh WSW 4.6 mph7.4 kmh 29.85 in1010.8 mb - 0.00 in0.0 mm 0.00 in0.0 mm
03:30 AM 33.1°F0.6°C 26.0°F-3.3°C 75% 3.5 mph W5.6 kmh W 6.9 mph11.1 kmh 29.84 in1010.5 mb - 0.00 in0.0 mm 0.00 in0.0 mm
03:40 AM 32.9°F0.5°C 26.2°F-3.2°C 76% 2.3 mph WSW3.7 kmh WSW 3.5 mph5.6 kmh 29.84 in1010.5 mb - 0.00 in0.0 mm 0.00 in0.0 mm
03:50 AM 32.1°F0.1°C 25.4°F-3.7°C 76% 1.2 mph SW1.9 kmh SW 2.3 mph3.7 kmh 29.84 in1010.5 mb - 0.00 in0.0 mm 0.00 in0.0 mm
04:00 AM 30.8°F-0.7°C 24.8°F-4.0°C 78% 2.3 mph WSW3.7 kmh WSW 3.5 mph5.6 kmh 29.85 in1010.8 mb - 0.00 in0.0 mm 0.00 in0.0 mm
04:10 AM 31.2°F-0.4°C 25.4°F-3.7°C 79% 2.3 mph SW3.7 kmh SW 3.5 mph5.6 kmh 29.84 in1010.5 mb - 0.00 in0.0 mm 0.00 in0.0 mm
04:20 AM 32.0°F0.0°C 25.9°F-3.4°C 78% 3.5 mph WSW5.6 kmh WSW 4.6 mph7.4 kmh 29.85 in1010.8 mb - 0.00 in0.0 mm 0.00 in0.0 mm
04:30 AM 32.7°F0.4°C 26.3°F-3.2°C 77% 4.6 mph WSW7.4 kmh WSW 4.6 mph7.4 kmh 29.85 in1010.8 mb - 0.00 in0.0 mm 0.00 in0.0 mm
04:40 AM 33.4°F0.8°C 26.3°F-3.2°C 75% 4.6 mph WSW7.4 kmh WSW 9.2 mph14.8 kmh 29.85 in1010.8 mb - 0.00 in0.0 mm 0.00 in0.0 mm
04:50 AM 33.6°F0.9°C 26.6°F-3.0°C 75% 6.9 mph WSW11.1 kmh WSW 6.9 mph11.1 kmh 29.85 in1010.8 mb - 0.00 in0.0 mm 0.00 in0.0 mm
05:00 AM 33.5°F0.8°C 26.4°F-3.1°C 75% 5.8 mph WSW9.3 kmh WSW 8.1 mph13.0 kmh 29.86 in1011.2 mb - 0.00 in0.0 mm 0.00 in0.0 mm
05:10 AM 33.8°F1.0°C 26.7°F-2.9°C 75% 6.9 mph WSW11.1 kmh WSW 10.4 mph16.7 kmh 29.86 in1011.2 mb - 0.00 in0.0 mm 0.00 in0.0 mm
05:20 AM 33.8°F1.0°C 27.0°F-2.8°C 76% 6.9 mph WSW11.1 kmh WSW 10.4 mph16.7 kmh 29.86 in1011.2 mb - 0.00 in0.0 mm 0.00 in0.0 mm
05:30 AM 34.0°F1.1°C 27.3°F-2.6°C 76% 5.8 mph W9.3 kmh W 10.4 mph16.7 kmh 29.87 in1011.5 mb - 0.00 in0.0 mm 0.00 in0.0 mm
05:40 AM 34.1°F1.2°C 27.3°F-2.6°C 76% 6.9 mph WSW11.1 kmh WSW 11.5 mph18.5 kmh 29.88 in1011.9 mb - 0.00 in0.0 mm 0.00 in0.0 mm
05:50 AM 34.1°F1.2°C 27.3°F-2.6°C 76% 6.9 mph W11.1 kmh W 9.2 mph14.8 kmh 29.88 in1011.9 mb - 0.00 in0.0 mm 0.00 in0.0 mm
06:00 AM 33.9°F1.1°C 27.2°F-2.7°C 76% 6.9 mph W11.1 kmh W 6.9 mph11.1 kmh 29.88 in1011.9 mb - 0.00 in0.0 mm 0.00 in0.0 mm
06:10 AM 33.8°F1.0°C 27.3°F-2.6°C 77% 8.1 mph W13.0 kmh W 11.5 mph18.5 kmh 29.88 in1011.9 mb - 0.00 in0.0 mm 0.00 in0.0 mm
06:20 AM 33.5°F0.8°C 27.0°F-2.8°C 77% 4.6 mph WSW7.4 kmh WSW 4.6 mph7.4 kmh 29.89 in1012.2 mb - 0.00 in0.0 mm 0.00 in0.0 mm
06:30 AM 33.3°F0.7°C 27.2°F-2.7°C 78% 6.9 mph WSW11.1 kmh WSW 11.5 mph18.5 kmh 29.89 in1012.2 mb - 0.00 in0.0 mm 0.00 in0.0 mm
06:40 AM 32.9°F0.5°C 26.7°F-2.9°C 78% 5.8 mph W9.3 kmh W 11.5 mph18.5 kmh 29.89 in1012.2 mb - 0.00 in0.0 mm 0.00 in0.0 mm
06:50 AM 32.5°F0.3°C 26.7°F-2.9°C 79% 8.1 mph W13.0 kmh W 12.7 mph20.4 kmh 29.90 in1012.5 mb - 0.00 in0.0 mm 0.00 in0.0 mm
07:00 AM 32.2°F0.1°C 26.1°F-3.3°C 78% 8.1 mph W13.0 kmh W 11.5 mph18.5 kmh 29.91 in1012.9 mb - 0.00 in0.0 mm 0.00 in0.0 mm
07:10 AM 31.7°F-0.2°C 25.6°F-3.6°C 78% 4.6 mph W7.4 kmh W 5.8 mph9.3 kmh 29.91 in1012.9 mb - 0.00 in0.0 mm 0.00 in0.0 mm
07:20 AM 31.2°F-0.4°C 25.1°F-3.8°C 78% 9.2 mph NW14.8 kmh NW 13.8 mph22.2 kmh 29.92 in1013.2 mb - 0.00 in0.0 mm 0.00 in0.0 mm
07:30 AM 30.7°F-0.7°C 25.0°F-3.9°C 79% 9.2 mph WNW14.8 kmh WNW 16.1 mph25.9 kmh 29.92 in1013.2 mb - 0.00 in0.0 mm 0.00 in0.0 mm
07:40 AM 30.3°F-0.9°C 24.5°F-4.2°C 79% 9.2 mph WNW14.8 kmh WNW 10.4 mph16.7 kmh 29.94 in1013.9 mb - 0.00 in0.0 mm 0.00 in0.0 mm
07:50 AM 29.5°F-1.4°C 23.2°F-4.9°C 77% 13.8 mph NW22.2 kmh NW 20.7 mph33.3 kmh 29.95 in1014.2 mb - 0.00 in0.0 mm 0.00 in0.0 mm
08:00 AM 28.4°F-2.0°C 20.9°F-6.2°C 73% 9.2 mph NW14.8 kmh NW 12.7 mph20.4 kmh 29.96 in1014.6 mb - 0.00 in0.0 mm 0.00 in0.0 mm
08:10 AM 27.4°F-2.6°C 19.5°F-6.9°C 72% 5.8 mph NW9.3 kmh NW 17.3 mph27.8 kmh 29.97 in1014.9 mb - 0.00 in0.0 mm 0.00 in0.0 mm
08:20 AM 26.9°F-2.8°C 19.7°F-6.8°C 74% 9.2 mph W14.8 kmh W 12.7 mph20.4 kmh 29.98 in1015.2 mb - 0.00 in0.0 mm 0.00 in0.0 mm
08:30 AM 26.6°F-3.0°C 19.7°F-6.8°C 75% 9.2 mph WNW14.8 kmh WNW 15.0 mph24.1 kmh 29.99 in1015.6 mb - 0.00 in0.0 mm 0.00 in0.0 mm
08:40 AM 25.9°F-3.4°C 17.5°F-8.1°C 70% 10.4 mph WNW16.7 kmh WNW 17.3 mph27.8 kmh 30.00 in1015.9 mb - 0.00 in0.0 mm 0.00 in0.0 mm
08:50 AM 25.1°F-3.8°C 15.7°F-9.1°C 67% 8.1 mph NW13.0 kmh NW 17.3 mph27.8 kmh 30.00 in1015.9 mb - 0.00 in0.0 mm 0.00 in0.0 mm
09:00 AM 24.7°F-4.1°C 14.6°F-9.7°C 65% 9.2 mph NW14.8 kmh NW 16.1 mph25.9 kmh 30.01 in1016.3 mb - 0.00 in0.0 mm 0.00 in0.0 mm
09:10 AM 24.1°F-4.4°C 12.9°F-10.6°C 62% 10.4 mph NW16.7 kmh NW 13.8 mph22.2 kmh 30.02 in1016.6 mb - 0.00 in0.0 mm 0.00 in0.0 mm
09:20 AM 23.6°F-4.7°C 11.7°F-11.3°C 60% 11.5 mph WNW18.5 kmh WNW 15.0 mph24.1 kmh 30.03 in1016.9 mb - 0.00 in0.0 mm 0.00 in0.0 mm
09:30 AM 23.8°F-4.6°C 12.3°F-10.9°C 61% 8.1 mph NW13.0 kmh NW 18.4 mph29.6 kmh 30.04 in1017.3 mb - 0.00 in0.0 mm 0.00 in0.0 mm
09:40 AM 23.7°F-4.6°C 12.6°F-10.8°C 62% 9.2 mph NW14.8 kmh NW 19.6 mph31.5 kmh 30.04 in1017.3 mb - 0.00 in0.0 mm 0.00 in0.0 mm
09:50 AM 23.5°F-4.7°C 12.4°F-10.9°C 62% 15.0 mph WNW24.1 kmh WNW 24.2 mph38.9 kmh 30.04 in1017.3 mb - 0.00 in0.0 mm 0.00 in0.0 mm
10:00 AM 23.6°F-4.7°C 13.2°F-10.4°C 64% 12.7 mph WNW20.4 kmh WNW 21.9 mph35.2 kmh 30.05 in1017.6 mb - 0.00 in0.0 mm 0.00 in0.0 mm
10:10 AM 23.4°F-4.8°C 13.7°F-10.2°C 66% 10.4 mph WNW16.7 kmh WNW 16.1 mph25.9 kmh 30.06 in1017.9 mb - 0.00 in0.0 mm 0.00 in0.0 mm
10:20 AM 22.7°F-5.2°C 12.7°F-10.7°C 65% 9.2 mph NW14.8 kmh NW 15.0 mph24.1 kmh 30.07 in1018.3 mb - 0.00 in0.0 mm 0.00 in0.0 mm
10:30 AM 22.2°F-5.4°C 11.8°F-11.2°C 64% 11.5 mph WNW18.5 kmh WNW 17.3 mph27.8 kmh 30.09 in1019.0 mb - 0.00 in0.0 mm 0.00 in0.0 mm
10:40 AM 21.9°F-5.6°C 11.9°F-11.2°C 65% 13.8 mph W22.2 kmh W 20.7 mph33.3 kmh 30.09 in1019.0 mb - 0.00 in0.0 mm 0.00 in0.0 mm
10:50 AM 22.2°F-5.4°C 11.9°F-11.2°C 64% 9.2 mph NW14.8 kmh NW 13.8 mph22.2 kmh 30.10 in1019.3 mb - 0.00 in0.0 mm 0.00 in0.0 mm
11:00 AM 21.9°F-5.6°C 11.2°F-11.6°C 63% 11.5 mph WNW18.5 kmh WNW 15.0 mph24.1 kmh 30.11 in1019.6 mb - 0.00 in0.0 mm 0.00 in0.0 mm
11:10 AM 21.7°F-5.7°C 11.1°F-11.6°C 63% 6.9 mph NW11.1 kmh NW 11.5 mph18.5 kmh 30.12 in1020.0 mb - 0.00 in0.0 mm 0.00 in0.0 mm
11:20 AM 22.1°F-5.5°C 11.1°F-11.6°C 62% 10.4 mph WNW16.7 kmh WNW 18.4 mph29.6 kmh 30.12 in1020.0 mb - 0.00 in0.0 mm 0.00 in0.0 mm
11:30 AM 22.7°F-5.2°C 10.1°F-12.2°C 58% 13.8 mph WNW22.2 kmh WNW 23.0 mph37.0 kmh 30.12 in1020.0 mb - 0.00 in0.0 mm 0.00 in0.0 mm
11:40 AM 23.2°F-4.9°C 10.2°F-12.1°C 57% 15.0 mph NW24.1 kmh NW 20.7 mph33.3 kmh 30.13 in1020.3 mb - 0.00 in0.0 mm 0.00 in0.0 mm
11:50 AM 22.5°F-5.3°C 9.6°F-12.4°C 57% 12.7 mph NW20.4 kmh NW 17.3 mph27.8 kmh 30.14 in1020.7 mb - 0.00 in0.0 mm 0.00 in0.0 mm
12:00 PM 22.5°F-5.3°C 9.9°F-12.3°C 58% 10.4 mph NW16.7 kmh NW 17.3 mph27.8 kmh 30.14 in1020.7 mb - 0.00 in0.0 mm 0.00 in0.0 mm
12:10 PM 22.4°F-5.3°C 9.8°F-12.3°C 58% 10.4 mph NW16.7 kmh NW 15.0 mph24.1 kmh 30.14 in1020.7 mb - 0.00 in0.0 mm 0.00 in0.0 mm
12:20 PM 22.6°F-5.2°C 10.1°F-12.2°C 58% 8.1 mph NW13.0 kmh NW 16.1 mph25.9 kmh 30.14 in1020.7 mb - 0.00 in0.0 mm 0.00 in0.0 mm
12:30 PM 22.1°F-5.5°C 9.2°F-12.7°C 57% 8.1 mph WNW13.0 kmh WNW 12.7 mph20.4 kmh 30.14 in1020.7 mb - 0.00 in0.0 mm 0.00 in0.0 mm
12:40 PM 22.6°F-5.2°C 9.6°F-12.4°C 57% 10.4 mph NW16.7 kmh NW 18.4 mph29.6 kmh 30.15 in1021.0 mb - 0.00 in0.0 mm 0.00 in0.0 mm
12:50 PM 22.6°F-5.2°C 9.7°F-12.4°C 57% 10.4 mph NW16.7 kmh NW 15.0 mph24.1 kmh 30.15 in1021.0 mb - 0.00 in0.0 mm 0.00 in0.0 mm
01:00 PM 22.2°F-5.4°C 9.3°F-12.6°C 57% 8.1 mph NW13.0 kmh NW 12.7 mph20.4 kmh 30.15 in1021.0 mb - 0.00 in0.0 mm 0.00 in0.0 mm
01:10 PM 22.2°F-5.4°C 9.3°F-12.6°C 57% 8.1 mph NW13.0 kmh NW 15.0 mph24.1 kmh 30.15 in1021.0 mb - 0.00 in0.0 mm 0.00 in0.0 mm
01:20 PM 22.5°F-5.3°C 9.1°F-12.7°C 56% 10.4 mph WNW16.7 kmh WNW 16.1 mph25.9 kmh 30.15 in1021.0 mb - 0.00 in0.0 mm 0.00 in0.0 mm
01:30 PM 22.4°F-5.3°C 9.5°F-12.5°C 57% 10.4 mph NW16.7 kmh NW 17.3 mph27.8 kmh 30.16 in1021.3 mb - 0.00 in0.0 mm 0.00 in0.0 mm
01:40 PM 23.8°F-4.6°C 9.9°F-12.3°C 55% 10.4 mph W16.7 kmh W 15.0 mph24.1 kmh 30.16 in1021.3 mb - 0.00 in0.0 mm 0.00 in0.0 mm
01:50 PM 21.8°F-5.7°C 8.5°F-13.1°C 56% 11.5 mph WNW18.5 kmh WNW 18.4 mph29.6 kmh 30.16 in1021.3 mb - 0.00 in0.0 mm 0.00 in0.0 mm
02:00 PM 23.7°F-4.6°C 9.1°F-12.7°C 53% 9.2 mph NW14.8 kmh NW 16.1 mph25.9 kmh 30.16 in1021.3 mb - 0.00 in0.0 mm 0.00 in0.0 mm
02:10 PM 22.5°F-5.3°C 8.7°F-12.9°C 55% 9.2 mph NW14.8 kmh NW 11.5 mph18.5 kmh 30.16 in1021.3 mb - 0.00 in0.0 mm 0.00 in0.0 mm
02:20 PM 22.7°F-5.2°C 8.5°F-13.1°C 54% 12.7 mph WNW20.4 kmh WNW 17.3 mph27.8 kmh 30.17 in1021.7 mb - 0.00 in0.0 mm 0.00 in0.0 mm
02:30 PM 22.7°F-5.2°C 8.1°F-13.3°C 53% 11.5 mph NW18.5 kmh NW 16.1 mph25.9 kmh 30.17 in1021.7 mb - 0.00 in0.0 mm 0.00 in0.0 mm
02:40 PM 22.4°F-5.3°C 7.8°F-13.4°C 53% 11.5 mph WNW18.5 kmh WNW 12.7 mph20.4 kmh 30.17 in1021.7 mb - 0.00 in0.0 mm 0.00 in0.0 mm
02:50 PM 22.1°F-5.5°C 7.5°F-13.6°C 53% 8.1 mph NW13.0 kmh NW 11.5 mph18.5 kmh 30.18 in1022.0 mb - 0.00 in0.0 mm 0.00 in0.0 mm
03:00 PM 22.6°F-5.2°C 8.1°F-13.3°C 53% 9.2 mph WNW14.8 kmh WNW 18.4 mph29.6 kmh 30.18 in1022.0 mb - 0.00 in0.0 mm 0.00 in0.0 mm
03:10 PM 22.0°F-5.6°C 6.6°F-14.1°C 51% 8.1 mph NW13.0 kmh NW 13.8 mph22.2 kmh 30.19 in1022.4 mb - 0.00 in0.0 mm 0.00 in0.0 mm
03:20 PM 21.6°F-5.8°C 5.8°F-14.6°C 50% 10.4 mph NW16.7 kmh NW 16.1 mph25.9 kmh 30.19 in1022.4 mb - 0.00 in0.0 mm 0.00 in0.0 mm
03:30 PM 21.1°F-6.1°C 4.5°F-15.3°C 48% 13.8 mph NW22.2 kmh NW 17.3 mph27.8 kmh 30.20 in1022.7 mb - 0.00 in0.0 mm 0.00 in0.0 mm
03:40 PM 21.4°F-5.9°C 6.0°F-14.4°C 51% 9.2 mph WNW14.8 kmh WNW 11.5 mph18.5 kmh 30.20 in1022.7 mb - 0.00 in0.0 mm 0.00 in0.0 mm
03:50 PM 21.4°F-5.9°C 6.5°F-14.2°C 52% 8.1 mph WNW13.0 kmh WNW 11.5 mph18.5 kmh 30.21 in1023.0 mb - 0.00 in0.0 mm 0.00 in0.0 mm
04:00 PM 20.6°F-6.3°C 5.7°F-14.6°C 52% 11.5 mph WNW18.5 kmh WNW 20.7 mph33.3 kmh 30.21 in1023.0 mb - 0.00 in0.0 mm 0.00 in0.0 mm
04:10 PM 20.5°F-6.4°C 5.2°F-14.9°C 51% 12.7 mph WNW20.4 kmh WNW 19.6 mph31.5 kmh 30.22 in1023.4 mb - 0.00 in0.0 mm 0.00 in0.0 mm
04:20 PM 19.7°F-6.8°C 4.5°F-15.3°C 51% 9.2 mph NW14.8 kmh NW 17.3 mph27.8 kmh 30.23 in1023.7 mb - 0.00 in0.0 mm 0.00 in0.0 mm
04:30 PM 19.8°F-6.8°C 4.6°F-15.2°C 51% 10.4 mph NW16.7 kmh NW 19.6 mph31.5 kmh 30.23 in1023.7 mb - 0.00 in0.0 mm 0.00 in0.0 mm
04:40 PM 19.3°F-7.1°C 4.1°F-15.5°C 51% 8.1 mph NW13.0 kmh NW 13.8 mph22.2 kmh 30.24 in1024.0 mb - 0.00 in0.0 mm 0.00 in0.0 mm
04:50 PM 18.9°F-7.3°C 4.1°F-15.5°C 52% 11.5 mph NW18.5 kmh NW 17.3 mph27.8 kmh 30.24 in1024.0 mb - 0.00 in0.0 mm 0.00 in0.0 mm
05:00 PM 18.4°F-7.6°C 3.7°F-15.7°C 52% 9.2 mph NW14.8 kmh NW 11.5 mph18.5 kmh 30.25 in1024.4 mb - 0.00 in0.0 mm 0.00 in0.0 mm
05:10 PM 17.7°F-7.9°C 2.6°F-16.3°C 51% 8.1 mph NW13.0 kmh NW 17.3 mph27.8 kmh 30.25 in1024.4 mb - 0.00 in0.0 mm 0.00 in0.0 mm
05:20 PM 17.3°F-8.2°C 1.8°F-16.8°C 50% 13.8 mph NW22.2 kmh NW 19.6 mph31.5 kmh 30.26 in1024.7 mb - 0.00 in0.0 mm 0.00 in0.0 mm
05:30 PM 16.8°F-8.4°C 1.3°F-17.1°C 50% 8.1 mph NW13.0 kmh NW 13.8 mph22.2 kmh 30.27 in1025.1 mb - 0.00 in0.0 mm 0.00 in0.0 mm
05:40 PM 16.5°F-8.6°C 1.9°F-16.7°C 52% 6.9 mph NW11.1 kmh NW 9.2 mph14.8 kmh 30.27 in1025.1 mb - 0.00 in0.0 mm 0.00 in0.0 mm
05:50 PM 16.2°F-8.8°C 2.0°F-16.7°C 53% 8.1 mph NW13.0 kmh NW 11.5 mph18.5 kmh 30.28 in1025.4 mb - 0.00 in0.0 mm 0.00 in0.0 mm
06:00 PM 15.9°F-8.9°C 1.3°F-17.1°C 52% 9.2 mph WNW14.8 kmh WNW 15.0 mph24.1 kmh 30.28 in1025.4 mb - 0.00 in0.0 mm 0.00 in0.0 mm
06:10 PM 15.5°F-9.2°C 1.0°F-17.2°C 52% 9.2 mph NW14.8 kmh NW 15.0 mph24.1 kmh 30.28 in1025.4 mb - 0.00 in0.0 mm 0.00 in0.0 mm
06:20 PM 15.2°F-9.3°C 1.1°F-17.2°C 53% 6.9 mph NW11.1 kmh NW 13.8 mph22.2 kmh 30.29 in1025.7 mb - 0.00 in0.0 mm 0.00 in0.0 mm
06:30 PM 15.0°F-9.4°C 1.7°F-16.8°C 55% 5.8 mph NW9.3 kmh NW 9.2 mph14.8 kmh 30.29 in1025.7 mb - 0.00 in0.0 mm 0.00 in0.0 mm
06:40 PM 14.7°F-9.6°C 1.8°F-16.8°C 56% 8.1 mph NW13.0 kmh NW 13.8 mph22.2 kmh 30.30 in1026.1 mb - 0.00 in0.0 mm 0.00 in0.0 mm
06:50 PM 14.6°F-9.7°C 1.3°F-17.1°C 55% 8.1 mph NW13.0 kmh NW 11.5 mph18.5 kmh 30.31 in1026.4 mb - 0.00 in0.0 mm 0.00 in0.0 mm
07:00 PM 14.5°F-9.7°C 0.9°F-17.3°C 54% 8.1 mph WNW13.0 kmh WNW 15.0 mph24.1 kmh 30.31 in1026.4 mb - 0.00 in0.0 mm 0.00 in0.0 mm
07:10 PM 14.4°F-9.8°C 0.8°F-17.3°C 54% 8.1 mph NW13.0 kmh NW 13.8 mph22.2 kmh 30.32 in1026.8 mb - 0.00 in0.0 mm 0.00 in0.0 mm
07:20 PM 14.2°F-9.9°C 1.0°F-17.2°C 55% 8.1 mph NW13.0 kmh NW 12.7 mph20.4 kmh 30.34 in1027.4 mb - 0.00 in0.0 mm 0.00 in0.0 mm
07:30 PM 14.0°F-10.0°C 0.8°F-17.3°C 55% 9.2 mph NW14.8 kmh NW 12.7 mph20.4 kmh 30.34 in1027.4 mb - 0.00 in0.0 mm 0.00 in0.0 mm
07:40 PM 13.9°F-10.1°C 0.3°F-17.6°C 54% 5.8 mph NW9.3 kmh NW 10.4 mph16.7 kmh 30.35 in1027.8 mb - 0.00 in0.0 mm 0.00 in0.0 mm
07:50 PM 13.5°F-10.3°C 1.1°F-17.2°C 57% 6.9 mph NW11.1 kmh NW 13.8 mph22.2 kmh 30.35 in1027.8 mb - 0.00 in0.0 mm 0.00 in0.0 mm
08:00 PM 13.6°F-10.2°C 0.4°F-17.6°C 55% 8.1 mph W13.0 kmh W 10.4 mph16.7 kmh 30.36 in1028.1 mb - 0.00 in0.0 mm 0.00 in0.0 mm
08:10 PM 13.4°F-10.3°C 0.2°F-17.7°C 55% 8.1 mph WNW13.0 kmh WNW 13.8 mph22.2 kmh 30.37 in1028.4 mb - 0.00 in0.0 mm 0.00 in0.0 mm
08:20 PM 13.2°F-10.4°C 0.0°F-17.8°C 55% 6.9 mph NW11.1 kmh NW 12.7 mph20.4 kmh 30.37 in1028.4 mb - 0.00 in0.0 mm 0.00 in0.0 mm
08:30 PM 13.1°F-10.5°C -0.1°F-17.8°C 55% 8.1 mph NW13.0 kmh NW 13.8 mph22.2 kmh 30.37 in1028.4 mb - 0.00 in0.0 mm 0.00 in0.0 mm
08:40 PM 13.0°F-10.6°C -0.6°F-18.1°C 54% 8.1 mph NW13.0 kmh NW 11.5 mph18.5 kmh 30.38 in1028.8 mb - 0.00 in0.0 mm 0.00 in0.0 mm
08:50 PM 12.9°F-10.6°C -0.2°F-17.9°C 55% 4.6 mph NW7.4 kmh NW 8.1 mph13.0 kmh 30.38 in1028.8 mb - 0.00 in0.0 mm 0.00 in0.0 mm
09:00 PM 12.6°F-10.8°C -0.2°F-17.9°C 56% 5.8 mph NW9.3 kmh NW 9.2 mph14.8 kmh 30.38 in1028.8 mb - 0.00 in0.0 mm 0.00 in0.0 mm
09:10 PM 12.5°F-10.8°C 0.1°F-17.7°C 57% 6.9 mph NW11.1 kmh NW 8.1 mph13.0 kmh 30.39 in1029.1 mb - 0.00 in0.0 mm 0.00 in0.0 mm
09:20 PM 12.4°F-10.9°C 0.0°F-17.8°C 57% 3.5 mph WNW5.6 kmh WNW 11.5 mph18.5 kmh 30.40 in1029.5 mb - 0.00 in0.0 mm 0.00 in0.0 mm
09:30 PM 12.3°F-10.9°C -0.1°F-17.8°C 57% 6.9 mph NW11.1 kmh NW 10.4 mph16.7 kmh 30.41 in1029.8 mb - 0.00 in0.0 mm 0.00 in0.0 mm
09:40 PM 12.3°F-10.9°C -0.4°F-18.0°C 56% 4.6 mph NW7.4 kmh NW 10.4 mph16.7 kmh 30.41 in1029.8 mb - 0.00 in0.0 mm 0.00 in0.0 mm
09:50 PM 12.0°F-11.1°C 0.1°F-17.7°C 58% 4.6 mph NW7.4 kmh NW 9.2 mph14.8 kmh 30.41 in1029.8 mb - 0.00 in0.0 mm 0.00 in0.0 mm
10:00 PM 11.9°F-11.2°C -0.1°F-17.8°C 58% 3.5 mph NW5.6 kmh NW 3.5 mph5.6 kmh 30.41 in1029.8 mb - 0.00 in0.0 mm 0.00 in0.0 mm
10:10 PM 11.8°F-11.2°C -0.2°F-17.9°C 58% 3.5 mph NW5.6 kmh NW 5.8 mph9.3 kmh 30.42 in1030.1 mb - 0.00 in0.0 mm 0.00 in0.0 mm
10:20 PM 11.5°F-11.4°C -0.1°F-17.8°C 59% 5.8 mph NW9.3 kmh NW 10.4 mph16.7 kmh 30.43 in1030.5 mb - 0.00 in0.0 mm 0.00 in0.0 mm
10:30 PM 11.5°F-11.4°C -0.1°F-17.8°C 59% 5.8 mph NW9.3 kmh NW 6.9 mph11.1 kmh 30.43 in1030.5 mb - 0.00 in0.0 mm 0.00 in0.0 mm
10:40 PM 11.2°F-11.6°C 0.4°F-17.6°C 61% 4.6 mph NW7.4 kmh NW 6.9 mph11.1 kmh 30.43 in1030.5 mb - 0.00 in0.0 mm 0.00 in0.0 mm
10:50 PM 11.1°F-11.6°C 0.3°F-17.6°C 61% 5.8 mph NW9.3 kmh NW 10.4 mph16.7 kmh 30.43 in1030.5 mb - 0.00 in0.0 mm 0.00 in0.0 mm
11:00 PM 11.3°F-11.5°C -0.3°F-17.9°C 59% 4.6 mph NW7.4 kmh NW 9.2 mph14.8 kmh 30.44 in1030.8 mb - 0.00 in0.0 mm 0.00 in0.0 mm
11:10 PM 11.3°F-11.5°C -0.6°F-18.1°C 58% 5.8 mph NW9.3 kmh NW 9.2 mph14.8 kmh 30.44 in1030.8 mb - 0.00 in0.0 mm 0.00 in0.0 mm
11:20 PM 11.2°F-11.6°C -1.1°F-18.4°C 57% 8.1 mph NW13.0 kmh NW 13.8 mph22.2 kmh 30.45 in1031.2 mb - 0.00 in0.0 mm 0.00 in0.0 mm
11:30 PM 11.1°F-11.6°C -0.8°F-18.2°C 58% 5.8 mph NW9.3 kmh NW 8.1 mph13.0 kmh 30.45 in1031.2 mb - 0.00 in0.0 mm 0.00 in0.0 mm
11:40 PM 10.9°F-11.7°C -0.6°F-18.1°C 59% 6.9 mph NW11.1 kmh NW 10.4 mph16.7 kmh 30.45 in1031.2 mb - 0.00 in0.0 mm 0.00 in0.0 mm
11:50 PM 10.8°F-11.8°C -1.1°F-18.4°C 58% 5.8 mph NW9.3 kmh NW 9.2 mph14.8 kmh 30.46 in1031.5 mb - 0.00 in0.0 mm 0.00 in0.0 mm